Time;durP1;ratioP1;P1;durP2;ratioP2;P2;SDS_P1;SDS_P2;PMS_P1;PMS_P2;Temp;Humidity;BMP_temperature;BMP_pressure;BME280_temperature;BME280_humidity;BME280_pressure;Samples;Min_cycle;Max_cycle;Signal;HPM_P1;HPM_P2
2022/07/04 00:01:14;;;;;;;;;;;26.00;44.10;;;;;;8468071;28;19907;-43
2022/07/04 00:05:16;;;;;;;;;;;26.00;44.20;;;;;;8467444;28;19911;-44
2022/07/04 00:09:16;;;;;;;;;;;26.00;44.20;;;;;;8467884;28;19916;-44
2022/07/04 00:13:16;;;;;;;;;;;26.00;44.20;;;;;;8467474;28;20279;-45
2022/07/04 00:17:17;;;;;;;;;;;26.00;44.30;;;;;;8466863;28;20327;-43
2022/07/04 00:21:17;;;;;;;;;;;25.90;44.30;;;;;;8467417;28;19985;-45
2022/07/04 00:25:18;;;;;;;;;;;26.00;44.30;;;;;;8467221;28;19919;-43
2022/07/04 00:29:18;;;;;;;;;;;25.90;44.30;;;;;;8466927;28;19967;-44
2022/07/04 00:33:19;;;;;;;;;;;25.90;44.30;;;;;;8467293;28;20361;-44
2022/07/04 00:37:19;;;;;;;;;;;25.90;44.30;;;;;;8466991;28;19953;-44
2022/07/04 00:41:20;;;;;;;;;;;25.90;44.30;;;;;;8466372;28;19911;-45
2022/07/04 00:45:20;;;;;;;;;;;25.90;44.30;;;;;;8466868;28;19911;-46
2022/07/04 00:49:21;;;;;;;;;;;25.90;44.30;;;;;;8466468;28;20345;-44
2022/07/04 00:53:22;;;;;;;;;;;25.90;44.30;;;;;;8465677;28;19912;-44
2022/07/04 00:57:23;;;;;;;;;;;25.90;44.30;;;;;;8466139;28;19919;-44
2022/07/04 01:01:23;;;;;;;;;;;25.90;44.30;;;;;;8465472;28;19943;-43
2022/07/04 01:05:24;;;;;;;;;;;25.90;44.40;;;;;;8465750;28;19908;-44
2022/07/04 01:09:24;;;;;;;;;;;25.90;44.40;;;;;;8465867;28;20296;-44
2022/07/04 01:13:25;;;;;;;;;;;25.90;44.40;;;;;;8464126;28;19912;-44
2022/07/04 01:17:25;;;;;;;;;;;25.90;44.40;;;;;;8465509;28;19986;-44
2022/07/04 01:21:25;;;;;;;;;;;25.90;44.40;;;;;;8465488;28;20349;-46
2022/07/04 01:25:26;;;;;;;;;;;25.90;44.40;;;;;;8464705;28;19954;-44
2022/07/04 01:29:26;;;;;;;;;;;25.90;44.50;;;;;;8465691;28;19915;-44
2022/07/04 01:33:27;;;;;;;;;;;25.90;44.50;;;;;;8465014;28;19945;-44
2022/07/04 01:37:27;;;;;;;;;;;25.80;44.50;;;;;;8464443;28;19923;-44
2022/07/04 01:41:32;;;;;;;;;;;25.80;44.50;;;;;;8465118;28;20018;-44
2022/07/04 01:45:39;;;;;;;;;;;25.80;44.50;;;;;;8464739;28;19907;-45
2022/07/04 01:49:39;;;;;;;;;;;25.80;44.50;;;;;;8464237;28;19916;-45
2022/07/04 01:53:40;;;;;;;;;;;25.80;44.50;;;;;;8464676;28;20353;-44
2022/07/04 01:57:40;;;;;;;;;;;25.80;44.60;;;;;;8464438;28;19960;-44
2022/07/04 02:01:41;;;;;;;;;;;25.80;44.60;;;;;;8463665;28;19912;-44
2022/07/04 02:05:44;;;;;;;;;;;25.80;44.60;;;;;;8463271;28;20003;-43
2022/07/04 02:09:44;;;;;;;;;;;25.80;44.60;;;;;;8464388;28;19981;-44
2022/07/04 02:13:45;;;;;;;;;;;25.80;44.70;;;;;;8463537;28;19960;-44
2022/07/04 02:17:45;;;;;;;;;;;25.80;44.70;;;;;;8463781;28;19919;-44
2022/07/04 02:21:46;;;;;;;;;;;25.80;44.70;;;;;;8463955;28;19911;-44
2022/07/04 02:25:46;;;;;;;;;;;25.80;44.70;;;;;;8463280;28;20003;-44
2022/07/04 02:29:47;;;;;;;;;;;25.70;44.70;;;;;;8463661;28;19965;-44
2022/07/04 02:33:48;;;;;;;;;;;25.80;44.70;;;;;;8463510;28;19912;-45
2022/07/04 02:37:48;;;;;;;;;;;25.70;44.70;;;;;;8462850;28;19912;-44
2022/07/04 02:41:49;;;;;;;;;;;25.70;44.70;;;;;;8463278;28;20379;-44
2022/07/04 02:45:49;;;;;;;;;;;25.70;44.80;;;;;;8463578;28;19911;-45
2022/07/04 02:49:49;;;;;;;;;;;25.70;44.80;;;;;;8462590;28;20315;-45
2022/07/04 02:53:50;;;;;;;;;;;25.70;44.80;;;;;;8463477;28;20411;-44
2022/07/04 02:57:50;;;;;;;;;;;25.70;44.80;;;;;;8463060;28;20018;-46
2022/07/04 03:01:51;;;;;;;;;;;25.70;44.80;;;;;;8462413;28;19916;-44
2022/07/04 03:05:52;;;;;;;;;;;25.70;44.90;;;;;;8463162;28;19968;-44
2022/07/04 03:09:52;;;;;;;;;;;25.70;44.90;;;;;;8462957;28;20391;-45
2022/07/04 03:13:53;;;;;;;;;;;25.60;44.80;;;;;;8462533;28;19912;-44
2022/07/04 03:17:53;;;;;;;;;;;25.60;44.90;;;;;;8468099;28;19918;-45
2022/07/04 03:21:53;;;;;;;;;;;25.60;44.90;;;;;;8469228;28;19908;-44
2022/07/04 03:25:54;;;;;;;;;;;25.60;44.90;;;;;;8468764;28;19915;-44
2022/07/04 03:29:54;;;;;;;;;;;25.60;44.90;;;;;;8468892;28;19920;-45
2022/07/04 03:33:55;;;;;;;;;;;25.60;44.90;;;;;;8468897;28;19934;-43
2022/07/04 03:37:56;;;;;;;;;;;25.60;45.00;;;;;;8468343;28;19994;-44
2022/07/04 03:41:56;;;;;;;;;;;25.60;45.00;;;;;;8468909;28;20348;-44
2022/07/04 03:45:57;;;;;;;;;;;25.60;45.00;;;;;;8468707;28;19950;-43
2022/07/04 03:49:57;;;;;;;;;;;25.60;45.10;;;;;;8432739;28;20338;-45
2022/07/04 03:53:58;;;;;;;;;;;25.60;45.10;;;;;;8456248;28;19911;-45
2022/07/04 03:57:58;;;;;;;;;;;25.60;45.20;;;;;;8467989;28;19908;-44
2022/07/04 04:01:59;;;;;;;;;;;25.60;45.20;;;;;;8467467;28;19911;-44
2022/07/04 04:05:59;;;;;;;;;;;25.60;45.20;;;;;;8467097;28;19908;-44
2022/07/04 04:10:00;;;;;;;;;;;25.60;45.20;;;;;;8467596;28;19919;-44
2022/07/04 04:14:00;;;;;;;;;;;25.60;45.30;;;;;;8467270;28;19936;-44
2022/07/04 04:18:01;;;;;;;;;;;25.50;45.20;;;;;;8467443;28;19918;-44
2022/07/04 04:22:01;;;;;;;;;;;25.50;45.30;;;;;;8467327;28;20276;-44
2022/07/04 04:26:01;;;;;;;;;;;25.60;45.30;;;;;;8466744;28;19919;-45
2022/07/04 04:30:02;;;;;;;;;;;25.50;45.30;;;;;;8466170;28;20284;-45
2022/07/04 04:34:03;;;;;;;;;;;25.50;45.30;;;;;;8467010;28;20270;-45
2022/07/04 04:38:04;;;;;;;;;;;25.50;45.30;;;;;;8466377;28;19911;-44
2022/07/04 04:42:04;;;;;;;;;;;25.60;45.40;;;;;;8466724;28;19949;-43
2022/07/04 04:46:05;;;;;;;;;;;25.60;45.40;;;;;;8466899;28;19907;-44
2022/07/04 04:50:05;;;;;;;;;;;25.50;45.40;;;;;;8465858;28;19920;-43
2022/07/04 04:54:06;;;;;;;;;;;25.50;45.40;;;;;;8466298;28;19984;-44
2022/07/04 04:58:06;;;;;;;;;;;25.50;45.40;;;;;;8466307;28;19915;-43
2022/07/04 05:02:07;;;;;;;;;;;25.50;45.40;;;;;;8465620;28;19997;-44
2022/07/04 05:06:07;;;;;;;;;;;25.50;45.50;;;;;;8466409;28;19907;-44
2022/07/04 05:10:09;;;;;;;;;;;25.50;45.50;;;;;;8465736;28;19920;-44
2022/07/04 05:14:09;;;;;;;;;;;25.50;45.50;;;;;;8465247;28;19957;-42
2022/07/04 05:18:10;;;;;;;;;;;25.50;45.50;;;;;;8465775;28;20380;-44
2022/07/04 05:22:10;;;;;;;;;;;25.40;45.50;;;;;;8465542;28;19937;-44
2022/07/04 05:26:11;;;;;;;;;;;25.50;45.60;;;;;;8464939;28;20277;-45
2022/07/04 05:30:11;;;;;;;;;;;25.50;45.60;;;;;;8465156;28;19924;-44
2022/07/04 05:34:12;;;;;;;;;;;25.50;46.10;;;;;;8465066;28;19907;-44
2022/07/04 05:38:12;;;;;;;;;;;25.50;45.60;;;;;;8464269;28;19911;-44
2022/07/04 05:42:13;;;;;;;;;;;25.50;45.60;;;;;;8465090;28;20255;-44
2022/07/04 05:46:13;;;;;;;;;;;25.40;45.60;;;;;;8465015;28;19918;-43
2022/07/04 05:50:14;;;;;;;;;;;25.40;45.60;;;;;;8464021;28;20372;-43
2022/07/04 05:54:14;;;;;;;;;;;25.40;45.60;;;;;;8464765;28;19912;-44
2022/07/04 05:58:15;;;;;;;;;;;25.40;45.60;;;;;;8464409;28;19908;-44
2022/07/04 06:02:16;;;;;;;;;;;25.40;45.60;;;;;;8463795;28;19918;-44
2022/07/04 06:06:16;;;;;;;;;;;25.40;45.60;;;;;;8464366;28;20270;-44
2022/07/04 06:10:17;;;;;;;;;;;25.40;45.60;;;;;;8463988;28;19923;-44
2022/07/04 06:14:17;;;;;;;;;;;25.40;45.60;;;;;;8463407;28;19998;-43
2022/07/04 06:18:18;;;;;;;;;;;25.40;45.70;;;;;;8463792;28;19998;-43
2022/07/04 06:22:18;;;;;;;;;;;25.40;45.70;;;;;;8463941;28;19961;-45
2022/07/04 06:26:19;;;;;;;;;;;25.40;45.70;;;;;;8462979;28;19916;-44
2022/07/04 06:30:19;;;;;;;;;;;25.40;45.70;;;;;;8463288;28;19919;-43
2022/07/04 06:38:39;;;;;;;;;;;25.40;45.70;;;;;;8463031;28;19919;-45
2022/07/04 06:42:39;;;;;;;;;;;25.40;45.70;;;;;;8462954;28;19908;-43
2022/07/04 06:46:40;;;;;;;;;;;25.40;45.70;;;;;;8463059;28;20365;-43
2022/07/04 06:50:40;;;;;;;;;;;25.40;45.70;;;;;;8465028;28;19927;-43
2022/07/04 06:54:41;;;;;;;;;;;25.40;45.80;;;;;;8470265;28;19918;-43
2022/07/04 06:58:41;;;;;;;;;;;25.40;45.70;;;;;;8469467;28;19915;-43
2022/07/04 07:02:42;;;;;;;;;;;25.40;45.70;;;;;;8462248;28;20041;-45
2022/07/04 07:06:42;;;;;;;;;;;25.40;45.70;;;;;;8470045;28;19943;-43
2022/07/04 07:10:43;;;;;;;;;;;25.40;45.60;;;;;;8469067;28;19919;-44
2022/07/04 07:14:43;;;;;;;;;;;25.50;45.70;;;;;;8469547;28;19912;-44
2022/07/04 07:18:44;;;;;;;;;;;25.50;45.80;;;;;;8469544;28;19907;-43
2022/07/04 07:22:44;;;;;;;;;;;25.50;45.70;;;;;;8469417;28;19912;-43
2022/07/04 07:26:45;;;;;;;;;;;25.50;45.70;;;;;;8469133;28;19916;-44
2022/07/04 07:30:45;;;;;;;;;;;25.50;45.70;;;;;;8468927;28;19919;-43
2022/07/04 07:34:46;;;;;;;;;;;25.50;45.70;;;;;;8468288;28;19962;-43
2022/07/04 07:38:46;;;;;;;;;;;25.50;45.60;;;;;;8468544;28;19908;-44
2022/07/04 07:42:47;;;;;;;;;;;25.50;45.60;;;;;;8468588;28;19912;-43
2022/07/04 07:46:47;;;;;;;;;;;25.50;45.60;;;;;;8468030;28;19911;-44
2022/07/04 07:50:48;;;;;;;;;;;25.50;45.60;;;;;;8468188;28;19923;-44
2022/07/04 07:54:48;;;;;;;;;;;25.60;45.70;;;;;;8468277;28;20373;-44
2022/07/04 07:58:49;;;;;;;;;;;25.60;45.60;;;;;;8467783;28;19911;-43
2022/07/04 08:07:10;;;;;;;;;;;25.60;45.60;;;;;;8468153;28;19965;-42
2022/07/04 08:11:11;;;;;;;;;;;25.60;45.60;;;;;;8467347;28;19923;-43
2022/07/04 08:15:11;;;;;;;;;;;25.60;45.60;;;;;;8467828;28;20303;-44
2022/07/04 08:19:12;;;;;;;;;;;25.60;45.50;;;;;;8467422;28;19915;-42
2022/07/04 08:23:12;;;;;;;;;;;25.60;45.50;;;;;;8466624;28;19916;-42
2022/07/04 08:27:13;;;;;;;;;;;25.60;45.60;;;;;;8467468;28;19958;-42
2022/07/04 08:31:13;;;;;;;;;;;25.60;45.50;;;;;;8467092;28;19919;-46
2022/07/04 08:35:14;;;;;;;;;;;25.60;45.50;;;;;;8466441;28;19912;-42
2022/07/04 08:39:14;;;;;;;;;;;25.70;45.60;;;;;;8466964;28;19922;-43
2022/07/04 08:43:15;;;;;;;;;;;25.70;45.60;;;;;;8467517;28;19918;-43
2022/07/04 08:47:19;;;;;;;;;;;25.70;45.60;;;;;;8466144;28;19912;-44
2022/07/04 08:51:40;;;;;;;;;;;25.70;45.60;;;;;;8466745;28;20372;-43
2022/07/04 09:00:01;;;;;;;;;;;25.70;45.60;;;;;;8466595;28;19970;-45
2022/07/04 09:04:01;;;;;;;;;;;25.80;45.70;;;;;;8466169;28;19955;-45
2022/07/04 09:08:03;;;;;;;;;;;25.80;45.70;;;;;;8465667;28;20284;-44
2022/07/04 09:12:03;;;;;;;;;;;25.80;45.70;;;;;;8465742;28;19943;-44
2022/07/04 09:16:04;;;;;;;;;;;25.80;45.60;;;;;;8465199;28;19931;-44
2022/07/04 09:20:17;;;;;;;;;;;25.90;45.70;;;;;;8429946;28;19926;-46
2022/07/04 09:24:37;;;;;;;;;;;25.80;45.70;;;;;;8465347;28;19908;-44
2022/07/04 09:28:38;;;;;;;;;;;25.90;45.70;;;;;;8464470;28;19961;-44
2022/07/04 09:32:54;;;;;;;;;;;25.90;45.60;;;;;;8413138;28;19908;-46
2022/07/04 09:36:56;;;;;;;;;;;25.90;45.60;;;;;;8458423;28;19912;-44
2022/07/04 09:45:23;;;;;;;;;;;25.90;45.60;;;;;;8470333;28;19950;-43
2022/07/04 09:49:24;;;;;;;;;;;25.90;45.50;;;;;;8463998;28;20304;-45
2022/07/04 09:53:27;;;;;;;;;;;25.90;45.50;;;;;;8464847;28;20296;-44
2022/07/04 09:57:28;;;;;;;;;;;26.00;45.60;;;;;;8464236;28;19994;-43
2022/07/04 10:01:29;;;;;;;;;;;26.00;45.60;;;;;;8463907;28;20294;-45
2022/07/04 10:05:30;;;;;;;;;;;26.00;45.50;;;;;;8464538;28;19992;-43
2022/07/04 10:09:30;;;;;;;;;;;26.00;45.50;;;;;;8463048;28;19916;-43
2022/07/04 10:13:30;;;;;;;;;;;26.10;45.60;;;;;;8463773;28;19936;-44
2022/07/04 10:17:31;;;;;;;;;;;26.10;45.50;;;;;;8464022;28;19915;-44
2022/07/04 10:21:32;;;;;;;;;;;26.10;45.50;;;;;;8464062;28;20295;-44
2022/07/04 10:25:32;;;;;;;;;;;26.10;45.40;;;;;;8462680;28;20285;-43
2022/07/04 10:29:33;;;;;;;;;;;26.10;45.50;;;;;;8445542;28;19926;-44
2022/07/04 10:33:34;;;;;;;;;;;26.10;45.50;;;;;;8464142;28;20310;-44
2022/07/04 10:37:53;;;;;;;;;;;26.10;45.40;;;;;;8463107;28;19912;-44
2022/07/04 10:41:58;;;;;;;;;;;26.20;45.50;;;;;;8463686;28;19972;-44
2022/07/04 10:46:05;;;;;;;;;;;26.20;45.50;;;;;;8463714;28;20022;-44
2022/07/04 10:50:06;;;;;;;;;;;26.20;45.50;;;;;;8462866;28;19945;-44
2022/07/04 10:54:06;;;;;;;;;;;26.20;45.40;;;;;;8463818;28;19908;-42
2022/07/04 10:58:07;;;;;;;;;;;26.20;45.50;;;;;;8463310;28;19919;-43
2022/07/04 11:02:08;;;;;;;;;;;26.20;45.40;;;;;;8462656;28;19911;-44
2022/07/04 11:06:29;;;;;;;;;;;26.20;45.40;;;;;;8463414;28;19912;-43
2022/07/04 11:10:30;;;;;;;;;;;26.20;45.40;;;;;;8462376;28;19919;-43
2022/07/04 11:14:31;;;;;;;;;;;26.30;45.50;;;;;;8462965;28;19911;-43
2022/07/04 11:18:37;;;;;;;;;;;26.30;45.50;;;;;;8463251;28;19938;-44
2022/07/04 11:22:38;;;;;;;;;;;26.30;45.50;;;;;;8462524;28;19912;-43
2022/07/04 11:26:38;;;;;;;;;;;26.30;45.60;;;;;;8462916;28;19915;-43
2022/07/04 11:30:47;;;;;;;;;;;26.30;45.50;;;;;;8462571;28;19961;-43
2022/07/04 11:34:48;;;;;;;;;;;26.30;45.50;;;;;;8462374;28;20399;-43
2022/07/04 11:38:55;;;;;;;;;;;26.40;45.50;;;;;;8468100;28;19908;-44
2022/07/04 11:47:37;;;;;;;;;;;26.50;45.40;;;;;;8468282;28;19926;-43
2022/07/04 11:51:47;;;;;;;;;;;26.50;45.40;;;;;;8468511;28;19912;-41
2022/07/04 11:55:55;;;;;;;;;;;26.50;45.50;;;;;;8467928;28;19912;-44
2022/07/04 12:00:00;;;;;;;;;;;26.50;45.50;;;;;;8468496;28;19934;-45
2022/07/04 12:04:10;;;;;;;;;;;26.50;45.40;;;;;;8468413;28;19935;-42
2022/07/04 12:08:11;;;;;;;;;;;26.50;45.90;;;;;;8467515;28;19926;-42
2022/07/04 12:12:12;;;;;;;;;;;26.50;45.40;;;;;;8468003;28;20364;-43
2022/07/04 12:16:12;;;;;;;;;;;26.50;45.40;;;;;;8467778;28;20333;-42
2022/07/04 12:20:19;;;;;;;;;;;26.50;45.40;;;;;;8467007;28;19911;-43
2022/07/04 12:24:20;;;;;;;;;;;26.50;45.40;;;;;;8467819;28;19908;-44
2022/07/04 12:28:23;;;;;;;;;;;26.50;45.40;;;;;;8467348;28;19927;-43
2022/07/04 12:32:23;;;;;;;;;;;26.50;45.40;;;;;;8467101;28;19937;-43
2022/07/04 12:36:24;;;;;;;;;;;26.50;45.40;;;;;;8467427;28;19915;-43
2022/07/04 12:40:24;;;;;;;;;;;26.50;45.40;;;;;;8466625;28;19911;-43
2022/07/04 12:44:24;;;;;;;;;;;26.50;45.40;;;;;;8467191;28;19908;-44
2022/07/04 12:48:26;;;;;;;;;;;26.50;45.40;;;;;;8465807;28;19920;-43
2022/07/04 12:52:28;;;;;;;;;;;26.60;45.40;;;;;;8466091;28;19915;-44
2022/07/04 12:56:29;;;;;;;;;;;26.60;45.40;;;;;;8466538;28;20390;-43
2022/07/04 13:00:29;;;;;;;;;;;26.60;45.30;;;;;;8466379;28;19964;-43
2022/07/04 13:04:31;;;;;;;;;;;26.60;45.30;;;;;;8464988;28;20041;-43
2022/07/04 13:08:32;;;;;;;;;;;26.70;45.30;;;;;;8466088;28;19931;-43
2022/07/04 13:12:32;;;;;;;;;;;26.70;45.30;;;;;;8465890;28;19975;-44
2022/07/04 13:16:32;;;;;;;;;;;26.80;45.30;;;;;;8465237;28;19994;-43
2022/07/04 13:20:33;;;;;;;;;;;26.70;45.30;;;;;;8466076;28;20431;-44
2022/07/04 13:24:33;;;;;;;;;;;26.70;45.30;;;;;;8466085;28;19915;-43
2022/07/04 13:28:34;;;;;;;;;;;26.70;45.20;;;;;;8464952;28;19919;-43
2022/07/04 13:32:36;;;;;;;;;;;26.70;45.30;;;;;;8465696;28;20007;-43
2022/07/04 13:36:36;;;;;;;;;;;26.70;45.30;;;;;;8465234;28;19911;-43
2022/07/04 13:40:36;;;;;;;;;;;26.70;45.30;;;;;;8464595;28;19907;-44
2022/07/04 13:44:37;;;;;;;;;;;26.70;45.40;;;;;;8465175;28;19939;-43
2022/07/04 13:48:37;;;;;;;;;;;26.70;45.40;;;;;;8464835;28;19920;-44
2022/07/04 13:52:38;;;;;;;;;;;26.60;45.40;;;;;;8464294;28;20019;-43
2022/07/04 13:56:39;;;;;;;;;;;26.60;45.40;;;;;;8464435;28;19911;-43
2022/07/04 14:00:41;;;;;;;;;;;26.60;45.40;;;;;;8464360;28;19947;-44
2022/07/04 14:04:41;;;;;;;;;;;26.50;45.30;;;;;;8464179;28;19915;-43
2022/07/04 14:08:42;;;;;;;;;;;26.60;45.40;;;;;;8464201;28;19968;-42
2022/07/04 14:12:42;;;;;;;;;;;26.50;45.30;;;;;;8464059;28;19961;-42
2022/07/04 14:16:42;;;;;;;;;;;26.50;45.40;;;;;;8463875;28;20334;-42
2022/07/04 14:20:43;;;;;;;;;;;26.50;45.40;;;;;;8464291;28;19943;-42
2022/07/04 14:24:43;;;;;;;;;;;26.50;45.40;;;;;;8464325;28;19923;-43
2022/07/04 14:28:44;;;;;;;;;;;26.50;45.50;;;;;;8463358;28;20429;-43
2022/07/04 14:32:44;;;;;;;;;;;26.50;45.50;;;;;;8463996;28;19912;-45
2022/07/04 14:36:45;;;;;;;;;;;26.40;45.50;;;;;;8463645;28;19912;-42
2022/07/04 14:40:48;;;;;;;;;;;26.40;45.60;;;;;;8462926;28;19911;-43
2022/07/04 14:44:48;;;;;;;;;;;26.40;45.60;;;;;;8463886;28;20318;-43
2022/07/04 14:48:49;;;;;;;;;;;26.40;45.60;;;;;;8463317;28;19964;-44
2022/07/04 14:52:50;;;;;;;;;;;26.40;45.60;;;;;;8462858;28;19919;-42
2022/07/04 14:56:50;;;;;;;;;;;26.40;45.60;;;;;;8463176;28;20261;-43
2022/07/04 15:00:51;;;;;;;;;;;26.40;45.70;;;;;;8463057;28;19912;-43
2022/07/04 15:04:51;;;;;;;;;;;26.40;45.70;;;;;;8462876;28;19915;-43
2022/07/04 15:08:52;;;;;;;;;;;26.40;45.60;;;;;;8463188;28;19930;-44
2022/07/04 15:12:53;;;;;;;;;;;26.40;45.60;;;;;;8466420;28;19986;-44
2022/07/04 15:16:53;;;;;;;;;;;26.40;45.60;;;;;;8469207;28;20431;-43
2022/07/04 15:25:13;;;;;;;;;;;26.40;45.60;;;;;;8439234;28;19962;-44
2022/07/04 15:29:13;;;;;;;;;;;26.50;45.60;;;;;;8462145;28;20006;-43
2022/07/04 15:33:14;;;;;;;;;;;26.40;45.60;;;;;;8469282;28;19912;-43
2022/07/04 15:37:16;;;;;;;;;;;26.50;45.60;;;;;;8469015;28;19936;-44
2022/07/04 15:41:16;;;;;;;;;;;26.50;45.60;;;;;;8468233;28;19912;-43
2022/07/04 15:45:17;;;;;;;;;;;26.50;45.60;;;;;;8469344;28;20395;-44
2022/07/04 15:49:17;;;;;;;;;;;26.50;45.60;;;;;;8468559;28;19919;-42
2022/07/04 15:53:17;;;;;;;;;;;26.50;45.60;;;;;;8467908;28;19911;-43
2022/07/04 15:57:18;;;;;;;;;;;26.50;45.60;;;;;;8468203;28;19915;-43
2022/07/04 16:01:18;;;;;;;;;;;26.50;45.60;;;;;;8468198;28;19934;-42
2022/07/04 16:05:19;;;;;;;;;;;26.50;45.60;;;;;;8445919;28;19914;-42
2022/07/04 16:09:19;;;;;;;;;;;26.50;45.60;;;;;;8459879;28;19920;-43
2022/07/04 16:13:20;;;;;;;;;;;26.50;45.60;;;;;;8467703;28;19934;-43
2022/07/04 16:17:20;;;;;;;;;;;26.40;45.60;;;;;;8467495;28;20303;-44
2022/07/04 16:21:21;;;;;;;;;;;26.40;45.60;;;;;;8467808;28;19914;-43
2022/07/04 16:25:21;;;;;;;;;;;26.40;45.60;;;;;;8465981;28;19916;-42
2022/07/04 16:29:23;;;;;;;;;;;26.40;45.60;;;;;;8467567;28;19923;-43
2022/07/04 16:33:23;;;;;;;;;;;26.40;45.60;;;;;;8467162;28;19962;-44
2022/07/04 16:37:23;;;;;;;;;;;26.40;45.60;;;;;;8466442;28;19919;-43
2022/07/04 16:41:24;;;;;;;;;;;26.40;45.60;;;;;;8466837;28;19908;-44
2022/07/04 16:45:24;;;;;;;;;;;26.40;45.60;;;;;;8466614;28;19915;-45
2022/07/04 16:49:25;;;;;;;;;;;26.40;45.60;;;;;;8465744;28;19923;-44
2022/07/04 16:53:25;;;;;;;;;;;26.40;45.60;;;;;;8466470;28;19911;-43
2022/07/04 16:57:26;;;;;;;;;;;26.40;45.60;;;;;;8466347;28;19915;-44
2022/07/04 17:01:26;;;;;;;;;;;26.40;45.70;;;;;;8465961;28;19918;-43
2022/07/04 17:05:27;;;;;;;;;;;26.40;45.70;;;;;;8466134;28;19927;-44
2022/07/04 17:09:27;;;;;;;;;;;26.30;45.60;;;;;;8466106;28;20010;-44
2022/07/04 17:13:28;;;;;;;;;;;26.30;45.60;;;;;;8465369;28;20407;-44
2022/07/04 17:17:28;;;;;;;;;;;26.30;45.60;;;;;;8465972;28;19916;-44
2022/07/04 17:21:29;;;;;;;;;;;26.30;45.60;;;;;;8465760;28;19912;-43
2022/07/04 17:25:29;;;;;;;;;;;26.30;45.60;;;;;;8465085;28;20318;-44
2022/07/04 17:29:29;;;;;;;;;;;26.30;45.70;;;;;;8465156;28;20014;-44
2022/07/04 17:33:30;;;;;;;;;;;26.30;45.60;;;;;;8465190;28;20010;-43
2022/07/04 17:37:30;;;;;;;;;;;26.30;45.60;;;;;;8464196;28;19912;-43
2022/07/04 17:41:40;;;;;;;;;;;26.30;45.60;;;;;;8464926;28;19953;-43
2022/07/04 17:45:40;;;;;;;;;;;26.30;45.60;;;;;;8464808;28;19956;-45
2022/07/04 17:49:41;;;;;;;;;;;26.30;45.50;;;;;;8464040;28;19928;-42
2022/07/04 17:53:41;;;;;;;;;;;26.30;45.60;;;;;;8465054;28;19912;-44
2022/07/04 17:57:42;;;;;;;;;;;26.30;45.60;;;;;;8464175;28;19922;-43
2022/07/04 18:01:43;;;;;;;;;;;26.30;45.70;;;;;;8464001;28;19912;-43
2022/07/04 18:05:43;;;;;;;;;;;26.30;45.60;;;;;;8464453;28;20373;-44
2022/07/04 18:09:44;;;;;;;;;;;26.30;45.70;;;;;;8464144;28;19920;-43
2022/07/04 18:13:44;;;;;;;;;;;26.30;45.70;;;;;;8463936;28;20006;-44
2022/07/04 18:17:45;;;;;;;;;;;26.30;45.70;;;;;;8464180;28;19912;-43
2022/07/04 18:21:45;;;;;;;;;;;26.30;45.60;;;;;;8464010;28;19915;-43
2022/07/04 18:25:46;;;;;;;;;;;26.30;45.70;;;;;;8463169;28;19961;-44
2022/07/04 18:29:46;;;;;;;;;;;26.30;45.70;;;;;;8463568;28;20380;-43
2022/07/04 18:33:47;;;;;;;;;;;26.30;45.80;;;;;;8463627;28;19908;-44
2022/07/04 18:37:47;;;;;;;;;;;26.30;45.70;;;;;;8462905;28;20360;-43
2022/07/04 18:46:07;;;;;;;;;;;26.20;45.70;;;;;;8466020;28;20014;-43
2022/07/04 18:50:08;;;;;;;;;;;26.30;45.80;;;;;;8462387;28;19919;-43
2022/07/04 18:54:08;;;;;;;;;;;26.20;45.70;;;;;;8463262;28;20396;-43
2022/07/04 18:58:09;;;;;;;;;;;26.20;45.70;;;;;;8462965;28;19911;-44
2022/07/04 19:02:09;;;;;;;;;;;26.20;45.80;;;;;;8450422;28;20330;-42
2022/07/04 19:06:10;;;;;;;;;;;26.20;45.70;;;;;;8460833;28;19912;-43
2022/07/04 19:10:10;;;;;;;;;;;26.20;45.70;;;;;;8462788;28;20280;-44
2022/07/04 19:14:11;;;;;;;;;;;26.20;45.80;;;;;;8462333;28;19960;-44
2022/07/04 19:18:12;;;;;;;;;;;26.20;45.80;;;;;;8462663;28;19952;-46
2022/07/04 19:22:12;;;;;;;;;;;26.20;45.80;;;;;;8463265;28;19980;-42
2022/07/04 19:26:13;;;;;;;;;;;26.20;45.80;;;;;;8461374;28;19919;-43
2022/07/04 19:30:13;;;;;;;;;;;26.20;45.80;;;;;;8443425;28;19940;-42
2022/07/04 19:34:14;;;;;;;;;;;26.20;45.80;;;;;;8442310;28;19915;-44
2022/07/04 19:38:14;;;;;;;;;;;26.20;45.90;;;;;;8462119;28;19912;-44
2022/07/04 19:42:18;;;;;;;;;;;26.20;45.80;;;;;;8462998;28;19912;-43
2022/07/04 19:46:19;;;;;;;;;;;26.20;45.90;;;;;;8462537;28;20380;-44
2022/07/04 19:50:20;;;;;;;;;;;26.20;45.90;;;;;;8461804;28;19920;-44
2022/07/04 19:54:21;;;;;;;;;;;26.20;45.90;;;;;;8444242;28;20245;-44
2022/07/04 19:58:21;;;;;;;;;;;26.10;45.90;;;;;;8465175;28;19912;-42
2022/07/04 20:02:22;;;;;;;;;;;26.10;45.90;;;;;;8468914;28;19914;-43
2022/07/04 20:06:22;;;;;;;;;;;26.10;45.90;;;;;;8468488;28;19923;-43
2022/07/04 20:10:23;;;;;;;;;;;26.10;45.90;;;;;;8467610;28;19920;-42
2022/07/04 20:14:23;;;;;;;;;;;26.10;45.80;;;;;;8468020;28;19912;-42
2022/07/04 20:18:24;;;;;;;;;;;26.10;45.90;;;;;;8468009;28;19975;-43
2022/07/04 20:22:24;;;;;;;;;;;26.10;45.90;;;;;;8467572;28;19915;-43
2022/07/04 20:26:25;;;;;;;;;;;26.10;45.90;;;;;;8467511;28;19916;-43
2022/07/04 20:30:25;;;;;;;;;;;26.10;45.90;;;;;;8467321;28;19919;-43
2022/07/04 20:34:29;;;;;;;;;;;26.10;45.90;;;;;;8466991;28;19907;-42
2022/07/04 20:38:31;;;;;;;;;;;26.10;45.90;;;;;;8467258;28;20340;-44
2022/07/04 20:42:31;;;;;;;;;;;26.10;45.90;;;;;;8467245;28;19911;-42
2022/07/04 20:46:32;;;;;;;;;;;26.10;45.90;;;;;;8466515;28;19947;-43
2022/07/04 20:50:33;;;;;;;;;;;26.10;46.00;;;;;;8466845;28;20015;-43
2022/07/04 20:54:33;;;;;;;;;;;26.00;45.90;;;;;;8466678;28;20360;-43
2022/07/04 20:58:34;;;;;;;;;;;26.00;45.90;;;;;;8466044;28;19970;-44
2022/07/04 21:02:34;;;;;;;;;;;26.00;45.90;;;;;;8467049;28;19907;-44
2022/07/04 21:06:35;;;;;;;;;;;26.00;46.00;;;;;;8466062;28;19912;-44
2022/07/04 21:10:35;;;;;;;;;;;26.00;46.00;;;;;;8464789;28;19916;-43
2022/07/04 21:14:36;;;;;;;;;;;26.00;46.00;;;;;;8466245;28;19990;-44
2022/07/04 21:18:37;;;;;;;;;;;26.00;46.00;;;;;;8466054;28;19914;-43
2022/07/04 21:22:37;;;;;;;;;;;26.00;46.00;;;;;;8465426;28;19951;-44
2022/07/04 21:26:38;;;;;;;;;;;26.00;46.00;;;;;;8465820;28;19915;-45
2022/07/04 21:30:39;;;;;;;;;;;25.90;46.00;;;;;;8465396;28;20329;-44
2022/07/04 21:34:39;;;;;;;;;;;26.00;46.00;;;;;;8464939;28;19961;-43
2022/07/04 21:38:39;;;;;;;;;;;25.90;46.00;;;;;;8464929;28;19914;-44
2022/07/04 21:42:40;;;;;;;;;;;25.90;46.00;;;;;;8465354;28;20273;-44
2022/07/04 21:46:40;;;;;;;;;;;26.00;46.10;;;;;;8464469;28;20110;-43
2022/07/04 21:50:41;;;;;;;;;;;25.90;46.00;;;;;;8465023;28;19919;-44
2022/07/04 21:54:41;;;;;;;;;;;25.90;46.00;;;;;;8464834;28;20260;-44
2022/07/04 21:58:42;;;;;;;;;;;25.90;46.10;;;;;;8464255;28;20357;-43
2022/07/04 22:02:43;;;;;;;;;;;26.00;46.10;;;;;;8442967;28;20426;-43
2022/07/04 22:06:43;;;;;;;;;;;25.90;46.10;;;;;;8456507;28;19962;-43
2022/07/04 22:10:43;;;;;;;;;;;25.90;46.10;;;;;;8462578;28;19927;-44
2022/07/04 22:14:44;;;;;;;;;;;25.90;46.10;;;;;;8464169;28;19908;-43
2022/07/04 22:18:44;;;;;;;;;;;25.90;46.10;;;;;;8464340;28;19911;-43
2022/07/04 22:22:45;;;;;;;;;;;25.90;46.10;;;;;;8462585;28;19937;-44
2022/07/04 22:26:45;;;;;;;;;;;25.90;46.10;;;;;;8463752;28;19950;-44
2022/07/04 22:30:46;;;;;;;;;;;25.90;46.10;;;;;;8463893;28;20396;-43
2022/07/04 22:34:46;;;;;;;;;;;25.90;46.10;;;;;;8463234;28;19919;-42
2022/07/04 22:38:47;;;;;;;;;;;25.80;46.10;;;;;;8463955;28;20297;-43
2022/07/04 22:42:47;;;;;;;;;;;25.90;46.10;;;;;;8463700;28;19957;-43
2022/07/04 22:46:49;;;;;;;;;;;25.80;46.10;;;;;;8463051;28;19919;-42
2022/07/04 22:55:09;;;;;;;;;;;25.80;46.10;;;;;;8466858;28;19914;-43
2022/07/04 22:59:10;;;;;;;;;;;25.80;46.20;;;;;;8462851;28;20269;-43
2022/07/04 23:03:10;;;;;;;;;;;25.80;46.20;;;;;;8463455;28;19912;-44
2022/07/04 23:07:11;;;;;;;;;;;25.80;46.10;;;;;;8463378;28;19912;-45
2022/07/04 23:11:12;;;;;;;;;;;25.80;46.20;;;;;;8462514;28;19947;-43
2022/07/04 23:15:12;;;;;;;;;;;25.80;46.20;;;;;;8463007;28;19918;-43
2022/07/04 23:19:13;;;;;;;;;;;25.80;46.20;;;;;;8475299;28;19919;-43
2022/07/04 23:23:13;;;;;;;;;;;25.80;46.20;;;;;;8462622;28;20349;-44
2022/07/04 23:27:15;;;;;;;;;;;25.80;46.20;;;;;;8463050;28;19999;-43
2022/07/04 23:31:15;;;;;;;;;;;25.80;46.20;;;;;;8462845;28;19916;-44
2022/07/04 23:35:15;;;;;;;;;;;25.80;46.20;;;;;;8467927;28;19960;-43
2022/07/04 23:39:16;;;;;;;;;;;25.70;46.20;;;;;;8469403;28;19918;-43
2022/07/04 23:43:17;;;;;;;;;;;25.70;46.20;;;;;;8468954;28;20272;-43
2022/07/04 23:47:17;;;;;;;;;;;25.80;46.30;;;;;;8468399;28;19912;-43
2022/07/04 23:51:18;;;;;;;;;;;25.70;46.30;;;;;;8468941;28;20177;-43
2022/07/04 23:55:18;;;;;;;;;;;25.70;46.20;;;;;;8468724;28;19922;-44